sensor_id;sensor_type;location;lat;lon;timestamp;pressure;altitude;pressure_sealevel;temperature;humidity
48200;BME280;33990;44.602;10.976;2023-03-04T00:00:21;101300.09;;;19.74;46.02
48200;BME280;33990;44.602;10.976;2023-03-04T00:02:48;101303.63;;;19.75;45.89
48200;BME280;33990;44.602;10.976;2023-03-04T00:05:16;101307.16;;;19.75;45.79
48200;BME280;33990;44.602;10.976;2023-03-04T00:07:46;101304.38;;;19.77;45.87
48200;BME280;33990;44.602;10.976;2023-03-04T00:10:14;101304.38;;;19.77;46.04
48200;BME280;33990;44.602;10.976;2023-03-04T00:12:41;101306.19;;;19.76;45.78
48200;BME280;33990;44.602;10.976;2023-03-04T00:15:08;101304.47;;;19.75;45.74
48200;BME280;33990;44.602;10.976;2023-03-04T00:17:36;101305.31;;;19.76;45.70
48200;BME280;33990;44.602;10.976;2023-03-04T00:20:03;101310.84;;;19.74;45.92
48200;BME280;33990;44.602;10.976;2023-03-04T00:22:31;101317.19;;;19.73;45.68
48200;BME280;33990;44.602;10.976;2023-03-04T00:24:58;101310.09;;;19.72;45.59
48200;BME280;33990;44.602;10.976;2023-03-04T00:27:25;101319.03;;;19.73;45.47
48200;BME280;33990;44.602;10.976;2023-03-04T00:29:53;101322.66;;;19.72;45.32
48200;BME280;33990;44.602;10.976;2023-03-04T00:32:20;101324.50;;;19.71;45.33
48200;BME280;33990;44.602;10.976;2023-03-04T00:34:48;101321.94;;;19.70;45.59
48200;BME280;33990;44.602;10.976;2023-03-04T00:37:15;101319.25;;;19.70;45.29
48200;BME280;33990;44.602;10.976;2023-03-04T00:39:42;101325.50;;;19.70;45.11
48200;BME280;33990;44.602;10.976;2023-03-04T00:42:10;101322.06;;;19.68;45.20
48200;BME280;33990;44.602;10.976;2023-03-04T00:44:38;101316.69;;;19.68;45.13
48200;BME280;33990;44.602;10.976;2023-03-04T00:47:05;101313.16;;;19.68;44.84
48200;BME280;33990;44.602;10.976;2023-03-04T00:49:32;101309.59;;;19.67;44.96
48200;BME280;33990;44.602;10.976;2023-03-04T00:51:59;101306.91;;;19.67;44.81
48200;BME280;33990;44.602;10.976;2023-03-04T00:54:27;101314.13;;;19.67;44.84
48200;BME280;33990;44.602;10.976;2023-03-04T00:56:54;101323.03;;;19.67;44.52
48200;BME280;33990;44.602;10.976;2023-03-04T00:59:21;101318.66;;;19.66;44.86
48200;BME280;33990;44.602;10.976;2023-03-04T01:01:49;101310.72;;;19.65;44.57
48200;BME280;33990;44.602;10.976;2023-03-04T01:04:16;101313.41;;;19.65;44.72
48200;BME280;33990;44.602;10.976;2023-03-04T01:06:44;101304.47;;;19.64;44.58
48200;BME280;33990;44.602;10.976;2023-03-04T01:09:11;101317.91;;;19.64;44.39
48200;BME280;33990;44.602;10.976;2023-03-04T01:11:38;101310.84;;;19.63;44.47
48200;BME280;33990;44.602;10.976;2023-03-04T01:14:06;101309.97;;;19.63;44.63
48200;BME280;33990;44.602;10.976;2023-03-04T01:16:33;101309.97;;;19.63;44.58
48200;BME280;33990;44.602;10.976;2023-03-04T01:19:01;101311.81;;;19.62;44.50
48200;BME280;33990;44.602;10.976;2023-03-04T01:21:29;101309.13;;;19.62;44.46
48200;BME280;33990;44.602;10.976;2023-03-04T01:23:56;101307.50;;;19.60;44.64
48200;BME280;33990;44.602;10.976;2023-03-04T01:26:24;101300.28;;;19.60;44.46
48200;BME280;33990;44.602;10.976;2023-03-04T01:28:52;101302.25;;;19.58;44.51
48200;BME280;33990;44.602;10.976;2023-03-04T01:31:19;101296.88;;;19.58;44.55
48200;BME280;33990;44.602;10.976;2023-03-04T01:33:47;101299.56;;;19.58;44.41
48200;BME280;33990;44.602;10.976;2023-03-04T01:36:14;101295.19;;;19.57;44.51
48200;BME280;33990;44.602;10.976;2023-03-04T01:38:41;101297.88;;;19.57;44.49
48200;BME280;33990;44.602;10.976;2023-03-04T01:41:10;101292.50;;;19.57;44.38
48200;BME280;33990;44.602;10.976;2023-03-04T01:43:38;101289.81;;;19.57;44.41
48200;BME280;33990;44.602;10.976;2023-03-04T01:46:06;101296.03;;;19.58;44.55
48200;BME280;33990;44.602;10.976;2023-03-04T01:48:36;101300.56;;;19.57;44.71
48200;BME280;33990;44.602;10.976;2023-03-04T01:51:11;101292.50;;;19.57;44.57
48200;BME280;33990;44.602;10.976;2023-03-04T01:53:42;101296.88;;;19.58;44.53
48200;BME280;33990;44.602;10.976;2023-03-04T01:56:15;101287.13;;;19.57;44.49
48200;BME280;33990;44.602;10.976;2023-03-04T01:58:43;101280.88;;;19.57;44.42
48200;BME280;33990;44.602;10.976;2023-03-04T02:01:16;101284.53;;;19.56;44.33
48200;BME280;33990;44.602;10.976;2023-03-04T02:03:43;101279.19;;;19.56;44.41
48200;BME280;33990;44.602;10.976;2023-03-04T02:06:11;101288.94;;;19.57;44.52
48200;BME280;33990;44.602;10.976;2023-03-04T02:08:38;101282.72;;;19.56;44.48
48200;BME280;33990;44.602;10.976;2023-03-04T02:11:05;101281.00;;;19.55;44.54
48200;BME280;33990;44.602;10.976;2023-03-04T02:13:33;101272.97;;;19.55;44.32
48200;BME280;33990;44.602;10.976;2023-03-04T02:16:02;101275.63;;;19.55;44.35
48200;BME280;33990;44.602;10.976;2023-03-04T02:18:29;101271.25;;;19.54;44.40
48200;BME280;33990;44.602;10.976;2023-03-04T02:21:42;101269.41;;;19.55;44.46
48200;BME280;33990;44.602;10.976;2023-03-04T02:26:18;101273.94;;;19.54;44.35
48200;BME280;33990;44.602;10.976;2023-03-04T02:28:51;101283.84;;;19.54;44.62
48200;BME280;33990;44.602;10.976;2023-03-04T02:31:27;101277.63;;;19.53;44.42
48200;BME280;33990;44.602;10.976;2023-03-04T02:33:58;101274.94;;;19.53;44.33
48200;BME280;33990;44.602;10.976;2023-03-04T02:36:27;101271.34;;;19.52;44.37
48200;BME280;33990;44.602;10.976;2023-03-04T02:39:00;101272.25;;;19.53;44.42
48200;BME280;33990;44.602;10.976;2023-03-04T02:41:29;101274.94;;;19.53;44.42
48200;BME280;33990;44.602;10.976;2023-03-04T02:43:58;101275.88;;;19.52;44.57
48200;BME280;33990;44.602;10.976;2023-03-04T02:46:26;101272.34;;;19.51;44.53
48200;BME280;33990;44.602;10.976;2023-03-04T02:48:54;101280.41;;;19.51;44.40
48200;BME280;33990;44.602;10.976;2023-03-04T02:51:21;101275.88;;;19.52;44.55
48200;BME280;33990;44.602;10.976;2023-03-04T02:53:48;101273.31;;;19.50;44.64
48200;BME280;33990;44.602;10.976;2023-03-04T02:56:15;101275.16;;;19.50;44.38
48200;BME280;33990;44.602;10.976;2023-03-04T02:58:43;101271.63;;;19.49;44.51
48200;BME280;33990;44.602;10.976;2023-03-04T03:01:11;101276.16;;;19.49;44.40
48200;BME280;33990;44.602;10.976;2023-03-04T03:03:38;101270.78;;;19.49;44.38
48200;BME280;33990;44.602;10.976;2023-03-04T03:06:06;101270.78;;;19.49;44.50
48200;BME280;33990;44.602;10.976;2023-03-04T03:08:34;101261.97;;;19.47;44.46
48200;BME280;33990;44.602;10.976;2023-03-04T03:11:01;101274.41;;;19.48;44.33
48200;BME280;33990;44.602;10.976;2023-03-04T03:13:30;101263.66;;;19.48;44.50
48200;BME280;33990;44.602;10.976;2023-03-04T03:15:58;101258.31;;;19.48;44.40
48200;BME280;33990;44.602;10.976;2023-03-04T03:18:25;101262.81;;;19.47;44.38
48200;BME280;33990;44.602;10.976;2023-03-04T03:20:52;101256.47;;;19.48;44.41
48200;BME280;33990;44.602;10.976;2023-03-04T03:23:20;101251.22;;;19.47;44.64
48200;BME280;33990;44.602;10.976;2023-03-04T03:25:47;101252.94;;;19.48;44.45
48200;BME280;33990;44.602;10.976;2023-03-04T03:28:15;101262.81;;;19.47;44.49
48200;BME280;33990;44.602;10.976;2023-03-04T03:30:42;101257.44;;;19.47;44.40
48200;BME280;33990;44.602;10.976;2023-03-04T03:33:09;101255.63;;;19.48;44.60
48200;BME280;33990;44.602;10.976;2023-03-04T03:35:37;101247.69;;;19.46;44.33
48200;BME280;33990;44.602;10.976;2023-03-04T03:38:04;101256.59;;;19.47;44.34
48200;BME280;33990;44.602;10.976;2023-03-04T03:40:31;101255.75;;;19.46;44.53
48200;BME280;33990;44.602;10.976;2023-03-04T03:42:59;101245.00;;;19.46;44.44
48200;BME280;33990;44.602;10.976;2023-03-04T03:45:26;101251.22;;;19.47;44.53
48200;BME280;33990;44.602;10.976;2023-03-04T03:47:53;101255.75;;;19.46;44.55
48200;BME280;33990;44.602;10.976;2023-03-04T03:50:21;101255.75;;;19.46;44.38
48200;BME280;33990;44.602;10.976;2023-03-04T03:52:48;101252.22;;;19.46;44.37
48200;BME280;33990;44.602;10.976;2023-03-04T03:55:16;101248.69;;;19.45;44.49
48200;BME280;33990;44.602;10.976;2023-03-04T03:57:43;101245.00;;;19.46;44.47
48200;BME280;33990;44.602;10.976;2023-03-04T04:00:11;101243.31;;;19.45;44.64
48200;BME280;33990;44.602;10.976;2023-03-04T04:02:39;101246.00;;;19.45;44.54
48200;BME280;33990;44.602;10.976;2023-03-04T04:05:07;101240.63;;;19.45;44.47
48200;BME280;33990;44.602;10.976;2023-03-04T04:07:36;101239.63;;;19.46;44.34
48200;BME280;33990;44.602;10.976;2023-03-04T04:10:04;101237.09;;;19.45;44.46
48200;BME280;33990;44.602;10.976;2023-03-04T04:12:32;101243.41;;;19.44;44.43
48200;BME280;33990;44.602;10.976;2023-03-04T04:14:59;101239.78;;;19.45;44.44
48200;BME280;33990;44.602;10.976;2023-03-04T04:17:26;101244.25;;;19.44;44.34
48200;BME280;33990;44.602;10.976;2023-03-04T04:19:54;101247.84;;;19.45;44.61
48200;BME280;33990;44.602;10.976;2023-03-04T04:22:21;101256.00;;;19.43;44.62
48200;BME280;33990;44.602;10.976;2023-03-04T04:24:49;101253.31;;;19.43;44.56
48200;BME280;33990;44.602;10.976;2023-03-04T04:27:16;101254.28;;;19.42;44.45
48200;BME280;33990;44.602;10.976;2023-03-04T04:29:44;101254.28;;;19.42;44.41
48200;BME280;33990;44.602;10.976;2023-03-04T04:32:11;101248.78;;;19.44;44.53
48200;BME280;33990;44.602;10.976;2023-03-04T04:34:39;101248.78;;;19.44;44.59
48200;BME280;33990;44.602;10.976;2023-03-04T04:37:06;101241.84;;;19.41;44.68
48200;BME280;33990;44.602;10.976;2023-03-04T04:39:33;101247.09;;;19.43;44.63
48200;BME280;33990;44.602;10.976;2023-03-04T04:42:01;101240.13;;;19.40;44.90
48200;BME280;33990;44.602;10.976;2023-03-04T04:44:28;101241.94;;;19.40;44.77
48200;BME280;33990;44.602;10.976;2023-03-04T04:46:55;101238.31;;;19.41;44.73
48200;BME280;33990;44.602;10.976;2023-03-04T04:49:23;101238.31;;;19.41;44.81
48200;BME280;33990;44.602;10.976;2023-03-04T04:51:50;101241.84;;;19.41;44.63
48200;BME280;33990;44.602;10.976;2023-03-04T04:54:17;101235.63;;;19.41;44.69
48200;BME280;33990;44.602;10.976;2023-03-04T04:56:44;101239.16;;;19.41;44.53
48200;BME280;33990;44.602;10.976;2023-03-04T04:59:12;101240.13;;;19.40;44.65
48200;BME280;33990;44.602;10.976;2023-03-04T05:01:39;101244.53;;;19.41;44.60
48200;BME280;33990;44.602;10.976;2023-03-04T05:04:07;101247.22;;;19.41;44.65
48200;BME280;33990;44.602;10.976;2023-03-04T05:06:34;101248.06;;;19.42;44.65
48200;BME280;33990;44.602;10.976;2023-03-04T05:09:02;101242.69;;;19.42;44.59
48200;BME280;33990;44.602;10.976;2023-03-04T05:11:30;101232.94;;;19.41;44.75
48200;BME280;33990;44.602;10.976;2023-03-04T05:13:58;101239.25;;;19.40;44.57
48200;BME280;33990;44.602;10.976;2023-03-04T05:16:25;101241.00;;;19.41;44.59
48200;BME280;33990;44.602;10.976;2023-03-04T05:18:52;101239.25;;;19.40;44.50
48200;BME280;33990;44.602;10.976;2023-03-04T05:21:20;101236.56;;;19.40;44.55
48200;BME280;33990;44.602;10.976;2023-03-04T05:23:47;101237.56;;;19.39;44.45
48200;BME280;33990;44.602;10.976;2023-03-04T05:26:16;101230.34;;;19.39;44.71
48200;BME280;33990;44.602;10.976;2023-03-04T05:28:44;101237.56;;;19.39;44.61
48200;BME280;33990;44.602;10.976;2023-03-04T05:31:11;101238.41;;;19.39;44.61
48200;BME280;33990;44.602;10.976;2023-03-04T05:33:39;101237.56;;;19.39;44.57
48200;BME280;33990;44.602;10.976;2023-03-04T05:36:06;101243.78;;;19.39;44.49
48200;BME280;33990;44.602;10.976;2023-03-04T05:38:35;101243.91;;;19.38;44.64
48200;BME280;33990;44.602;10.976;2023-03-04T05:41:05;101242.22;;;19.37;44.62
48200;BME280;33990;44.602;10.976;2023-03-04T05:43:34;101236.84;;;19.37;44.48
48200;BME280;33990;44.602;10.976;2023-03-04T05:46:02;101244.91;;;19.37;44.58
48200;BME280;33990;44.602;10.976;2023-03-04T05:48:30;101244.91;;;19.37;44.46
48200;BME280;33990;44.602;10.976;2023-03-04T05:50:59;101248.53;;;19.36;44.50
48200;BME280;33990;44.602;10.976;2023-03-04T05:53:27;101253.91;;;19.36;44.58
48200;BME280;33990;44.602;10.976;2023-03-04T05:55:55;101261.97;;;19.36;44.68
48200;BME280;33990;44.602;10.976;2023-03-04T05:58:22;101257.56;;;19.35;44.58
48200;BME280;33990;44.602;10.976;2023-03-04T06:00:49;101266.47;;;19.35;44.61
48200;BME280;33990;44.602;10.976;2023-03-04T06:03:19;101262.94;;;19.35;44.62
48200;BME280;33990;44.602;10.976;2023-03-04T06:05:47;101259.41;;;19.34;44.67
48200;BME280;33990;44.602;10.976;2023-03-04T06:08:15;101269.31;;;19.34;44.81
48200;BME280;33990;44.602;10.976;2023-03-04T06:10:42;101265.75;;;19.33;44.60
48200;BME280;33990;44.602;10.976;2023-03-04T06:13:10;101271.97;;;19.34;44.59
48200;BME280;33990;44.602;10.976;2023-03-04T06:15:38;101276.50;;;19.33;44.63
48200;BME280;33990;44.602;10.976;2023-03-04T06:18:06;101278.34;;;19.33;44.73
48200;BME280;33990;44.602;10.976;2023-03-04T06:20:33;101281.88;;;19.33;44.63
48200;BME280;33990;44.602;10.976;2023-03-04T06:23:02;101278.34;;;19.33;44.46
48200;BME280;33990;44.602;10.976;2023-03-04T06:25:30;101271.13;;;19.33;44.43
48200;BME280;33990;44.602;10.976;2023-03-04T06:27:57;101270.28;;;19.33;44.48
48200;BME280;33990;44.602;10.976;2023-03-04T06:30:24;101285.41;;;19.34;44.42
48200;BME280;33990;44.602;10.976;2023-03-04T06:32:52;101284.56;;;19.33;44.42
48200;BME280;33990;44.602;10.976;2023-03-04T06:35:19;101293.47;;;19.34;44.32
48200;BME280;33990;44.602;10.976;2023-03-04T06:37:46;101281.88;;;19.33;44.42
48200;BME280;33990;44.602;10.976;2023-03-04T06:40:14;101292.47;;;19.35;44.31
48200;BME280;33990;44.602;10.976;2023-03-04T06:42:41;101291.63;;;19.34;44.17
48200;BME280;33990;44.602;10.976;2023-03-04T06:45:10;101294.31;;;19.34;44.54
48200;BME280;33990;44.602;10.976;2023-03-04T06:47:37;101296.16;;;19.34;44.39
48200;BME280;33990;44.602;10.976;2023-03-04T06:50:05;101296.16;;;19.34;44.34
48200;BME280;33990;44.602;10.976;2023-03-04T06:52:32;101283.56;;;19.34;44.37
48200;BME280;33990;44.602;10.976;2023-03-04T06:54:59;101296.16;;;19.34;44.32
48200;BME280;33990;44.602;10.976;2023-03-04T06:57:27;101300.53;;;19.35;44.33
48200;BME280;33990;44.602;10.976;2023-03-04T06:59:54;101305.91;;;19.35;44.35
48200;BME280;33990;44.602;10.976;2023-03-04T07:02:22;101306.75;;;19.35;44.31
48200;BME280;33990;44.602;10.976;2023-03-04T07:04:49;101301.38;;;19.35;44.39
48200;BME280;33990;44.602;10.976;2023-03-04T07:07:16;101305.91;;;19.35;44.27
48200;BME280;33990;44.602;10.976;2023-03-04T07:09:44;101305.91;;;19.35;44.27
48200;BME280;33990;44.602;10.976;2023-03-04T07:12:11;101300.53;;;19.35;44.41
48200;BME280;33990;44.602;10.976;2023-03-04T07:14:38;101307.59;;;19.36;44.09
48200;BME280;33990;44.602;10.976;2023-03-04T07:17:06;101304.91;;;19.36;44.17
48200;BME280;33990;44.602;10.976;2023-03-04T07:19:33;101306.75;;;19.35;44.07
48200;BME280;33990;44.602;10.976;2023-03-04T07:22:00;101313.81;;;19.36;44.01
48200;BME280;33990;44.602;10.976;2023-03-04T07:24:28;101312.03;;;19.37;44.09
48200;BME280;33990;44.602;10.976;2023-03-04T07:26:55;101310.19;;;19.37;43.90
48200;BME280;33990;44.602;10.976;2023-03-04T07:29:22;101317.38;;;19.37;43.95
48200;BME280;33990;44.602;10.976;2023-03-04T07:31:49;101314.72;;;19.37;43.92
48200;BME280;33990;44.602;10.976;2023-03-04T07:34:19;101317.25;;;19.38;43.89
48200;BME280;33990;44.602;10.976;2023-03-04T07:36:47;101314.56;;;19.38;43.97
48200;BME280;33990;44.602;10.976;2023-03-04T07:39:14;101321.78;;;19.38;43.84
48200;BME280;33990;44.602;10.976;2023-03-04T07:41:41;101322.63;;;19.38;43.98
48200;BME280;33990;44.602;10.976;2023-03-04T07:44:10;101316.41;;;19.38;44.03
48200;BME280;33990;44.602;10.976;2023-03-04T07:46:39;101319.09;;;19.38;43.84
48200;BME280;33990;44.602;10.976;2023-03-04T07:49:07;101318.09;;;19.39;43.86
48200;BME280;33990;44.602;10.976;2023-03-04T07:51:34;101328.84;;;19.39;44.01
48200;BME280;33990;44.602;10.976;2023-03-04T07:54:01;101329.69;;;19.39;44.16
48200;BME280;33990;44.602;10.976;2023-03-04T07:56:31;101329.69;;;19.39;44.13
48200;BME280;33990;44.602;10.976;2023-03-04T07:58:59;101331.53;;;19.39;44.17
48200;BME280;33990;44.602;10.976;2023-03-04T08:01:35;101328.97;;;19.37;44.35
48200;BME280;33990;44.602;10.976;2023-03-04T08:04:06;101331.66;;;19.37;44.46
48200;BME280;33990;44.602;10.976;2023-03-04T08:06:34;101329.84;;;19.38;44.45
48200;BME280;33990;44.602;10.976;2023-03-04T08:09:04;101330.81;;;19.37;44.39
48200;BME280;33990;44.602;10.976;2023-03-04T08:11:34;101335.31;;;19.36;44.35
48200;BME280;33990;44.602;10.976;2023-03-04T08:14:02;101327.38;;;19.35;44.62
48200;BME280;33990;44.602;10.976;2023-03-04T08:16:29;101329.94;;;19.36;44.58
48200;BME280;33990;44.602;10.976;2023-03-04T08:19:01;101323.72;;;19.36;44.63
48200;BME280;33990;44.602;10.976;2023-03-04T08:21:29;101322.75;;;19.37;44.56
48200;BME280;33990;44.602;10.976;2023-03-04T08:23:58;101322.75;;;19.37;44.41
48200;BME280;33990;44.602;10.976;2023-03-04T08:26:30;101324.56;;;19.36;44.69
48200;BME280;33990;44.602;10.976;2023-03-04T08:29:02;101312.97;;;19.36;44.69
48200;BME280;33990;44.602;10.976;2023-03-04T08:31:30;101318.34;;;19.36;44.69
48200;BME280;33990;44.602;10.976;2023-03-04T08:33:58;101311.28;;;19.35;44.92
48200;BME280;33990;44.602;10.976;2023-03-04T08:36:25;101315.66;;;19.36;44.57
48200;BME280;33990;44.602;10.976;2023-03-04T08:38:52;101316.50;;;19.36;44.78
48200;BME280;33990;44.602;10.976;2023-03-04T08:41:20;101314.72;;;19.37;44.83
48200;BME280;33990;44.602;10.976;2023-03-04T08:43:48;101312.88;;;19.37;44.72
48200;BME280;33990;44.602;10.976;2023-03-04T08:46:16;101312.88;;;19.37;44.92
48200;BME280;33990;44.602;10.976;2023-03-04T08:48:43;101308.34;;;19.38;44.75
48200;BME280;33990;44.602;10.976;2023-03-04T08:51:13;101304.44;;;19.42;44.95
48200;BME280;33990;44.602;10.976;2023-03-04T08:53:41;101297.97;;;19.44;45.16
48200;BME280;33990;44.602;10.976;2023-03-04T08:56:09;101306.78;;;19.46;44.94
48200;BME280;33990;44.602;10.976;2023-03-04T08:58:37;101311.06;;;19.49;44.51
48200;BME280;33990;44.602;10.976;2023-03-04T09:01:07;101299.34;;;19.50;44.88
48200;BME280;33990;44.602;10.976;2023-03-04T09:03:36;101301.88;;;19.51;44.68
48200;BME280;33990;44.602;10.976;2023-03-04T09:06:05;101300.78;;;19.54;44.73
48200;BME280;33990;44.602;10.976;2023-03-04T09:08:33;101292.59;;;19.56;44.47
48200;BME280;33990;44.602;10.976;2023-03-04T09:11:01;101297.00;;;19.57;44.69
48200;BME280;33990;44.602;10.976;2023-03-04T09:13:32;101305.78;;;19.59;44.38
48200;BME280;33990;44.602;10.976;2023-03-04T09:16:00;101302.13;;;19.60;44.33
48200;BME280;33990;44.602;10.976;2023-03-04T09:18:28;101294.06;;;19.60;44.43
48200;BME280;33990;44.602;10.976;2023-03-04T09:20:56;101294.91;;;19.60;44.37
48200;BME280;33990;44.602;10.976;2023-03-04T09:23:23;101297.53;;;19.62;44.21
48200;BME280;33990;44.602;10.976;2023-03-04T09:25:50;101300.09;;;19.63;44.16
48200;BME280;33990;44.602;10.976;2023-03-04T09:28:18;101294.72;;;19.63;44.14
48200;BME280;33990;44.602;10.976;2023-03-04T09:30:45;101294.72;;;19.63;44.18
48200;BME280;33990;44.602;10.976;2023-03-04T09:33:13;101295.56;;;19.64;44.14
48200;BME280;33990;44.602;10.976;2023-03-04T09:35:40;101287.50;;;19.64;44.07
48200;BME280;33990;44.602;10.976;2023-03-04T09:38:08;101287.41;;;19.65;44.10
48200;BME280;33990;44.602;10.976;2023-03-04T09:40:42;101284.72;;;19.65;44.11
48200;BME280;33990;44.602;10.976;2023-03-04T09:43:16;101282.03;;;19.65;43.93
48200;BME280;33990;44.602;10.976;2023-03-04T09:45:57;101278.38;;;19.66;43.86
48200;BME280;33990;44.602;10.976;2023-03-04T09:48:28;101273.00;;;19.66;43.81
48200;BME280;33990;44.602;10.976;2023-03-04T09:56:37;101264.78;;;19.68;43.92
48200;BME280;33990;44.602;10.976;2023-03-04T09:59:16;101271.00;;;19.68;43.95
48200;BME280;33990;44.602;10.976;2023-03-04T10:01:51;101261.25;;;19.67;43.88
48200;BME280;33990;44.602;10.976;2023-03-04T10:06:55;101266.53;;;19.69;43.96
48200;BME280;33990;44.602;10.976;2023-03-04T10:09:26;101258.47;;;19.69;43.88
48200;BME280;33990;44.602;10.976;2023-03-04T10:12:00;101256.63;;;19.69;43.84
48200;BME280;33990;44.602;10.976;2023-03-04T10:17:11;101257.34;;;19.71;44.16
48200;BME280;33990;44.602;10.976;2023-03-04T10:25:25;101246.50;;;19.73;44.05
48200;BME280;33990;44.602;10.976;2023-03-04T10:28:24;101247.34;;;19.73;44.21
48200;BME280;33990;44.602;10.976;2023-03-04T10:30:54;101240.13;;;19.74;44.11
48200;BME280;33990;44.602;10.976;2023-03-04T10:33:41;101239.16;;;19.75;44.17
48200;BME280;33990;44.602;10.976;2023-03-04T10:41:29;101234.38;;;19.79;44.03
48200;BME280;33990;44.602;10.976;2023-03-04T10:46:25;101238.06;;;19.78;44.15
48200;BME280;33990;44.602;10.976;2023-03-04T10:48:53;101229.16;;;19.77;44.02
48200;BME280;33990;44.602;10.976;2023-03-04T10:51:23;101220.47;;;19.73;40.25
48200;BME280;33990;44.602;10.976;2023-03-04T10:56:37;101217.03;;;19.60;37.95
48200;BME280;33990;44.602;10.976;2023-03-04T11:04:39;101212.44;;;19.73;40.30
48200;BME280;33990;44.602;10.976;2023-03-04T11:07:08;101205.09;;;19.75;40.47
48200;BME280;33990;44.602;10.976;2023-03-04T11:09:36;101205.94;;;19.76;40.41
48200;BME280;33990;44.602;10.976;2023-03-04T11:12:10;101197.25;;;19.72;40.39
48200;BME280;33990;44.602;10.976;2023-03-04T11:14:49;101192.66;;;19.63;40.24
48200;BME280;33990;44.602;10.976;2023-03-04T11:17:22;101193.25;;;19.56;43.03
48200;BME280;33990;44.602;10.976;2023-03-04T11:22:32;101180.41;;;19.59;43.42
48200;BME280;33990;44.602;10.976;2023-03-04T11:25:06;101183.88;;;19.61;43.96
48200;BME280;33990;44.602;10.976;2023-03-04T11:27:44;101180.91;;;19.64;43.78
48200;BME280;33990;44.602;10.976;2023-03-04T11:30:24;101163.84;;;19.65;45.58
48200;BME280;33990;44.602;10.976;2023-03-04T11:32:57;101165.78;;;19.63;43.63
48200;BME280;33990;44.602;10.976;2023-03-04T11:35:34;101164.09;;;19.62;41.95
48200;BME280;33990;44.602;10.976;2023-03-04T11:40:53;101162.59;;;19.58;39.38
48200;BME280;33990;44.602;10.976;2023-03-04T11:52:13;101144.31;;;19.63;42.12
48200;BME280;33990;44.602;10.976;2023-03-04T12:06:01;101117.19;;;19.66;42.45
48200;BME280;33990;44.602;10.976;2023-03-04T12:08:46;101123.56;;;19.65;41.78
48200;BME280;33990;44.602;10.976;2023-03-04T12:14:26;101116.47;;;19.64;41.77
48200;BME280;33990;44.602;10.976;2023-03-04T12:20:08;101101.09;;;19.66;42.19
48200;BME280;33990;44.602;10.976;2023-03-04T12:28:32;101090.19;;;19.68;42.50
48200;BME280;33990;44.602;10.976;2023-03-04T12:40:26;101067.47;;;19.72;42.74
48200;BME280;33990;44.602;10.976;2023-03-04T12:51:31;101045.88;;;19.73;44.46
48200;BME280;33990;44.602;10.976;2023-03-04T12:57:31;101039.53;;;19.74;45.29
48200;BME280;33990;44.602;10.976;2023-03-04T13:02:43;101035.84;;;19.75;46.61
48200;BME280;33990;44.602;10.976;2023-03-04T13:16:48;101021.97;;;19.70;44.62
48200;BME280;33990;44.602;10.976;2023-03-04T13:22:02;101014.59;;;19.72;46.65
48200;BME280;33990;44.602;10.976;2023-03-04T13:24:44;101018.16;;;19.73;47.55
48200;BME280;33990;44.602;10.976;2023-03-04T13:27:47;101015.34;;;19.74;47.40
48200;BME280;33990;44.602;10.976;2023-03-04T13:41:14;101000.91;;;19.75;47.79
48200;BME280;33990;44.602;10.976;2023-03-04T13:43:55;100992.75;;;19.77;47.82
48200;BME280;33990;44.602;10.976;2023-03-04T13:51:26;100995.53;;;19.75;49.49
48200;BME280;33990;44.602;10.976;2023-03-04T14:04:19;100974.41;;;19.61;51.45
48200;BME280;33990;44.602;10.976;2023-03-04T14:06:48;100978.00;;;19.60;52.00
48200;BME280;33990;44.602;10.976;2023-03-04T14:09:23;100975.31;;;19.60;51.24
48200;BME280;33990;44.602;10.976;2023-03-04T14:11:55;100963.72;;;19.60;52.73
48200;BME280;33990;44.602;10.976;2023-03-04T14:14:26;100965.47;;;19.61;53.43
48200;BME280;33990;44.602;10.976;2023-03-04T14:17:01;100966.34;;;19.61;53.64
48200;BME280;33990;44.602;10.976;2023-03-04T14:19:31;100953.84;;;19.60;54.32
48200;BME280;33990;44.602;10.976;2023-03-04T14:21:59;100962.78;;;19.61;54.55
48200;BME280;33990;44.602;10.976;2023-03-04T14:24:27;100952.03;;;19.61;54.74
48200;BME280;33990;44.602;10.976;2023-03-04T14:27:09;100952.91;;;19.61;55.19
48200;BME280;33990;44.602;10.976;2023-03-04T14:29:37;100952.91;;;19.61;55.04
48200;BME280;33990;44.602;10.976;2023-03-04T14:32:05;100949.25;;;19.62;55.08
48200;BME280;33990;44.602;10.976;2023-03-04T14:34:35;100952.03;;;19.61;55.44
48200;BME280;33990;44.602;10.976;2023-03-04T14:37:19;100942.16;;;19.61;55.29
48200;BME280;33990;44.602;10.976;2023-03-04T14:39:49;100949.25;;;19.62;55.58
48200;BME280;33990;44.602;10.976;2023-03-04T14:42:19;100942.16;;;19.61;55.54
48200;BME280;33990;44.602;10.976;2023-03-04T14:44:49;100938.50;;;19.62;54.99
48200;BME280;33990;44.602;10.976;2023-03-04T14:47:24;100930.44;;;19.62;54.62
48200;BME280;33990;44.602;10.976;2023-03-04T14:49:53;100929.44;;;19.63;55.09
48200;BME280;33990;44.602;10.976;2023-03-04T14:52:47;100924.22;;;19.62;54.80
48200;BME280;33990;44.602;10.976;2023-03-04T14:55:25;100924.22;;;19.62;54.80
48200;BME280;33990;44.602;10.976;2023-03-04T14:58:07;100920.69;;;19.61;54.20
48200;BME280;33990;44.602;10.976;2023-03-04T15:00:37;100918.00;;;19.61;53.72
48200;BME280;33990;44.602;10.976;2023-03-04T15:03:19;100914.44;;;19.61;50.10
48200;BME280;33990;44.602;10.976;2023-03-04T15:05:50;100913.69;;;19.59;49.88
48200;BME280;33990;44.602;10.976;2023-03-04T15:08:21;100908.47;;;19.57;48.86